Time;durP1;ratioP1;P1;durP2;ratioP2;P2;SDS_P1;SDS_P2;PMS_P1;PMS_P2;Temp;Humidity;BMP_temperature;BMP_pressure;BME280_temperature;BME280_humidity;BME280_pressure;Samples;Min_cycle;Max_cycle;Signal;HPM_P1;HPM_P2
2023/05/02 00:01:54;;;;;;;67.10;29.10;;;;;;;;;;6291457;28;20072;-57
2023/05/02 00:04:55;;;;;;;75.00;32.17;;;;;;;;;;6289917;28;20087;-52
2023/05/02 00:07:56;;;;;;;73.82;29.85;;;;;;;;;;6291229;28;20944;-67
2023/05/02 00:10:56;;;;;;;63.38;26.52;;;;;;;;;;6291207;28;20087;-54
2023/05/02 00:13:57;;;;;;;70.43;28.30;;;;;;;;;;6290396;28;20155;-56
2023/05/02 00:16:57;;;;;;;63.83;27.08;;;;;;;;;;6290711;28;20422;-51
2023/05/02 00:19:58;;;;;;;68.22;27.13;;;;;;;;;;6290971;28;20514;-50
2023/05/02 00:22:59;;;;;;;62.85;25.63;;;;;;;;;;6290973;28;20052;-65
2023/05/02 00:25:59;;;;;;;61.67;25.23;;;;;;;;;;6289934;28;20072;-50
2023/05/02 00:29:00;;;;;;;64.90;25.95;;;;;;;;;;6290854;28;20040;-60
2023/05/02 00:32:01;;;;;;;57.92;26.45;;;;;;;;;;6290823;28;20098;-60
2023/05/02 00:35:01;;;;;;;54.80;24.02;;;;;;;;;;6289501;28;20048;-49
2023/05/02 00:38:02;;;;;;;65.10;24.95;;;;;;;;;;6290695;28;20048;-53
2023/05/02 00:41:04;;;;;;;56.35;24.35;;;;;;;;;;6290812;28;20295;-57
2023/05/02 00:44:05;;;;;;;58.20;25.83;;;;;;;;;;6289841;28;20041;-52
2023/05/02 00:47:05;;;;;;;56.50;24.88;;;;;;;;;;6290187;28;20063;-52
2023/05/02 00:50:06;;;;;;;62.55;27.05;;;;;;;;;;6290723;28;20048;-56
2023/05/02 00:53:08;;;;;;;57.95;24.90;;;;;;;;;;6290317;28;20053;-63
2023/05/02 00:56:09;;;;;;;61.50;26.60;;;;;;;;;;6289536;28;20044;-57
2023/05/02 00:59:10;;;;;;;62.05;26.73;;;;;;;;;;6290430;28;20102;-54
2023/05/02 01:02:29;;;;;;;60.65;25.95;;;;;;;;;;6290586;28;20060;-49
2023/05/02 01:05:43;;;;;;;65.70;26.75;;;;;;;;;;6289018;28;20050;-53
2023/05/02 01:08:52;;;;;;;62.60;26.88;;;;;;;;;;6289013;28;20062;-54
2023/05/02 01:12:04;;;;;;;67.20;26.13;;;;;;;;;;6290239;28;20561;-51
2023/05/02 01:15:09;;;;;;;66.47;28.10;;;;;;;;;;6290446;28;20102;-53
2023/05/02 01:18:12;;;;;;;63.05;27.42;;;;;;;;;;6289096;28;20094;-50
2023/05/02 01:21:13;;;;;;;67.93;26.02;;;;;;;;;;6290308;28;20086;-51
2023/05/02 01:24:25;;;;;;;64.78;27.63;;;;;;;;;;6290119;28;20102;-51
2023/05/02 01:27:44;;;;;;;63.67;25.25;;;;;;;;;;6289658;28;20052;-50
2023/05/02 01:30:48;;;;;;;53.42;24.23;;;;;;;;;;6288907;28;20063;-53
2023/05/02 01:33:50;;;;;;;60.17;24.13;;;;;;;;;;6290265;28;20484;-53
2023/05/02 01:36:52;;;;;;;59.23;25.20;;;;;;;;;;6289845;28;20069;-55
2023/05/02 01:39:55;;;;;;;67.03;25.15;;;;;;;;;;6288608;28;20064;-53
2023/05/02 01:42:58;;;;;;;58.65;25.10;;;;;;;;;;6289726;28;20044;-52
2023/05/02 01:46:01;;;;;;;59.40;24.42;;;;;;;;;;6290009;28;20045;-50
2023/05/02 01:49:05;;;;;;;59.38;24.23;;;;;;;;;;6289278;28;20055;-49
2023/05/02 01:52:10;;;;;;;62.10;25.83;;;;;;;;;;6289026;28;20041;-50
2023/05/02 01:55:13;;;;;;;57.28;24.00;;;;;;;;;;6289946;28;20407;-63
2023/05/02 01:58:17;;;;;;;59.47;24.13;;;;;;;;;;6289866;28;20051;-58
2023/05/02 02:01:18;;;;;;;57.58;26.13;;;;;;;;;;6288343;28;20037;-58
2023/05/02 02:04:20;;;;;;;57.85;25.67;;;;;;;;;;6289629;28;20048;-53
2023/05/02 02:07:21;;;;;;;48.63;24.38;;;;;;;;;;6289624;28;20048;-51
2023/05/02 02:10:25;;;;;;;64.03;25.73;;;;;;;;;;6289050;28;20040;-51
2023/05/02 02:13:31;;;;;;;56.70;24.25;;;;;;;;;;6293918;28;21019;-51
2023/05/02 02:16:36;;;;;;;69.45;29.48;;;;;;;;;;6293936;28;20139;-57
2023/05/02 02:19:37;;;;;;;72.65;29.70;;;;;;;;;;6293999;28;20402;-51
2023/05/02 02:22:39;;;;;;;69.03;28.83;;;;;;;;;;6292765;28;20049;-52
2023/05/02 02:25:41;;;;;;;;;;;;;;;;;;6294442;28;20197;-51
2023/05/02 02:28:42;;;;;;;64.53;28.30;;;;;;;;;;6293855;28;20397;-51
2023/05/02 02:31:42;;;;;;;66.72;27.77;;;;;;;;;;6292273;28;20052;-50
2023/05/02 02:34:43;;;;;;;68.18;29.27;;;;;;;;;;6293647;28;20048;-50
2023/05/02 02:38:08;;;;;;;66.10;27.45;;;;;;;;;;6293725;28;20036;-51
2023/05/02 02:41:18;;;;;;;69.45;27.75;;;;;;;;;;6293279;28;20047;-50
2023/05/02 02:44:39;;;;;;;67.95;29.10;;;;;;;;;;6292097;28;20052;-59
2023/05/02 02:47:43;;;;;;;55.40;24.90;;;;;;;;;;6293327;28;20036;-63
2023/05/02 02:51:06;;;;;;;63.90;27.27;;;;;;;;;;6293103;28;20040;-49
2023/05/02 02:54:27;;;;;;;63.60;26.08;;;;;;;;;;6292946;28;20053;-51
2023/05/02 02:57:50;;;;;;;62.22;26.45;;;;;;;;;;6291872;28;20047;-49
2023/05/02 03:00:52;;;;;;;53.13;24.95;;;;;;;;;;6292527;28;20054;-50
2023/05/02 03:03:55;;;;;;;69.00;27.35;;;;;;;;;;6292971;28;20071;-51
2023/05/02 03:06:56;;;;;;;60.95;24.65;;;;;;;;;;6292054;28;20078;-57
2023/05/02 03:09:57;;;;;;;60.47;24.92;;;;;;;;;;6291790;28;20042;-51
2023/05/02 03:12:57;;;;;;;60.55;25.20;;;;;;;;;;6292657;28;20713;-58
2023/05/02 03:16:07;;;;;;;54.08;25.00;;;;;;;;;;6292978;28;20558;-58
2023/05/02 03:19:08;;;;;;;56.83;25.33;;;;;;;;;;6291283;28;20044;-50
2023/05/02 03:22:08;;;;;;;62.63;24.52;;;;;;;;;;6291301;28;20056;-50
2023/05/02 03:25:09;;;;;;;62.42;24.60;;;;;;;;;;6292209;28;20045;-52
2023/05/02 03:28:11;;;;;;;61.30;27.45;;;;;;;;;;6291509;28;20040;-51
2023/05/02 03:31:12;;;;;;;;;;;;;;;;;;6292176;28;20044;-50
2023/05/02 03:34:13;;;;;;;63.88;25.27;;;;;;;;;;6292070;28;19924;-53
2023/05/02 03:37:14;;;;;;;59.22;24.42;;;;;;;;;;6292036;28;20113;-51
2023/05/02 03:40:14;;;;;;;56.38;23.08;;;;;;;;;;6290675;28;20491;-49
2023/05/02 03:43:15;;;;;;;57.75;25.15;;;;;;;;;;6291992;28;20049;-55
2023/05/02 03:46:16;;;;;;;63.42;27.00;;;;;;;;;;6291703;28;20059;-49
2023/05/02 03:49:18;;;;;;;65.50;27.55;;;;;;;;;;6290438;28;20453;-58
2023/05/02 03:52:18;;;;;;;63.22;25.23;;;;;;;;;;6291840;28;20047;-58
2023/05/02 03:55:20;;;;;;;63.92;24.67;;;;;;;;;;6291670;28;20040;-51
2023/05/02 03:58:21;;;;;;;62.50;24.50;;;;;;;;;;6290961;28;20095;-50
2023/05/02 04:01:22;;;;;;;60.10;23.83;;;;;;;;;;6291230;28;20052;-49
2023/05/02 04:04:22;;;;;;;68.18;27.33;;;;;;;;;;6291393;28;20487;-61
2023/05/02 04:07:24;;;;;;;61.17;25.80;;;;;;;;;;6291104;28;20062;-52
2023/05/02 04:10:25;;;;;;;65.82;25.65;;;;;;;;;;6290427;28;20071;-53
2023/05/02 04:13:27;;;;;;;74.32;25.45;;;;;;;;;;6291366;28;20137;-62
2023/05/02 04:16:28;;;;;;;60.00;24.70;;;;;;;;;;6291025;28;20037;-55
2023/05/02 04:19:29;;;;;;;60.42;24.65;;;;;;;;;;6289923;28;20048;-49
2023/05/02 04:22:29;;;;;;;59.92;24.77;;;;;;;;;;6291060;28;20063;-57
2023/05/02 04:25:30;;;;;;;67.05;25.83;;;;;;;;;;6290343;28;20105;-51
2023/05/02 04:28:31;;;;;;;64.90;25.70;;;;;;;;;;6290019;28;20511;-49
2023/05/02 04:31:32;;;;;;;67.90;25.27;;;;;;;;;;6290610;28;20044;-52
2023/05/02 04:34:32;;;;;;;67.07;27.65;;;;;;;;;;6290802;28;20046;-50
2023/05/02 04:37:33;;;;;;;73.63;27.05;;;;;;;;;;6290428;28;20048;-55
2023/05/02 04:40:34;;;;;;;64.00;25.05;;;;;;;;;;6289920;28;20048;-52
2023/05/02 04:43:35;;;;;;;65.43;26.20;;;;;;;;;;6290781;28;20520;-63
2023/05/02 04:46:35;;;;;;;61.95;24.92;;;;;;;;;;6290513;28;20305;-56
2023/05/02 04:49:36;;;;;;;58.40;23.90;;;;;;;;;;6289346;28;20045;-50
2023/05/02 04:52:37;;;;;;;66.90;23.83;;;;;;;;;;6290692;28;20044;-52
2023/05/02 04:55:37;;;;;;;61.83;23.60;;;;;;;;;;6290422;28;20047;-51
2023/05/02 04:58:38;;;;;;;56.28;24.50;;;;;;;;;;6289418;28;20040;-52
2023/05/02 05:01:38;;;;;;;59.13;23.17;;;;;;;;;;6290295;28;20059;-51
2023/05/02 05:04:39;;;;;;;62.00;21.05;;;;;;;;;;6290420;28;20375;-61
2023/05/02 05:07:40;;;;;;;48.42;19.63;;;;;;;;;;6289834;28;20513;-66
2023/05/02 05:10:40;;;;;;;51.30;19.98;;;;;;;;;;6289518;28;20040;-52
2023/05/02 05:13:41;;;;;;;48.78;19.48;;;;;;;;;;6290536;28;20587;-53
2023/05/02 05:16:41;;;;;;;44.20;18.48;;;;;;;;;;6289990;28;20044;-50
2023/05/02 05:19:42;;;;;;;53.95;18.38;;;;;;;;;;6288980;28;20036;-54
2023/05/02 05:22:43;;;;;;;46.03;18.13;;;;;;;;;;6290399;28;20049;-49
2023/05/02 05:25:43;;;;;;;45.13;18.75;;;;;;;;;;6290144;28;20459;-49
2023/05/02 05:28:44;;;;;;;44.22;17.42;;;;;;;;;;6289162;28;20056;-53
2023/05/02 05:31:44;;;;;;;48.90;18.00;;;;;;;;;;6290141;28;20045;-55
2023/05/02 05:34:45;;;;;;;49.10;18.95;;;;;;;;;;6290066;28;20040;-52
2023/05/02 05:37:46;;;;;;;50.28;19.30;;;;;;;;;;6289428;28;20052;-54
2023/05/02 05:40:49;;;;;;;49.88;19.63;;;;;;;;;;6289486;28;20044;-53
2023/05/02 05:43:50;;;;;;;54.38;20.83;;;;;;;;;;6290149;28;20051;-63
2023/05/02 05:46:50;;;;;;;56.40;20.33;;;;;;;;;;6292527;28;20049;-53
2023/05/02 05:49:55;;;;;;;47.35;18.65;;;;;;;;;;6293591;28;20499;-61
2023/05/02 05:52:55;;;;;;;43.33;20.38;;;;;;;;;;6294661;28;20537;-54
2023/05/02 05:55:56;;;;;;;47.05;18.42;;;;;;;;;;6294468;28;20049;-53
2023/05/02 05:58:57;;;;;;;41.78;17.77;;;;;;;;;;6293222;28;20045;-51
2023/05/02 06:01:58;;;;;;;43.22;16.83;;;;;;;;;;6292938;28;20430;-58
2023/05/02 06:04:58;;;;;;;43.70;16.88;;;;;;;;;;6294179;28;20059;-51
2023/05/02 06:07:59;;;;;;;39.80;15.82;;;;;;;;;;6293536;28;20075;-56
2023/05/02 06:10:59;;;;;;;36.30;15.52;;;;;;;;;;6293423;28;20130;-51
2023/05/02 06:14:00;;;;;;;36.25;16.73;;;;;;;;;;6294229;28;20587;-52
2023/05/02 06:17:02;;;;;;;38.22;14.23;;;;;;;;;;6293946;28;20056;-54
2023/05/02 06:20:03;;;;;;;31.88;13.68;;;;;;;;;;6292869;28;20484;-50
2023/05/02 06:23:03;;;;;;;29.23;11.55;;;;;;;;;;6294090;28;20049;-50
2023/05/02 06:26:04;;;;;;;27.73;11.32;;;;;;;;;;6293842;28;20132;-53
2023/05/02 06:29:05;;;;;;;28.40;12.27;;;;;;;;;;6292637;28;20048;-51
2023/05/02 06:32:06;;;;;;;24.88;10.18;;;;;;;;;;6293702;28;20514;-54
2023/05/02 06:35:06;;;;;;;26.30;9.73;;;;;;;;;;6293619;28;20045;-51
2023/05/02 06:38:07;;;;;;;20.42;10.27;;;;;;;;;;6292808;28;20055;-63
2023/05/02 06:41:13;;;;;;;21.52;8.82;;;;;;;;;;6292766;28;20041;-54
2023/05/02 06:44:14;;;;;;;21.42;9.00;;;;;;;;;;6293486;28;20086;-62
2023/05/02 06:47:14;;;;;;;17.23;8.25;;;;;;;;;;6293098;28;20048;-53
2023/05/02 06:50:15;;;;;;;21.25;8.68;;;;;;;;;;6292098;28;20178;-51
2023/05/02 06:53:16;;;;;;;17.25;7.85;;;;;;;;;;6293160;28;20572;-50
2023/05/02 06:56:16;;;;;;;15.40;7.53;;;;;;;;;;6292963;28;20072;-54
2023/05/02 06:59:17;;;;;;;15.52;7.50;;;;;;;;;;6291821;28;20051;-51
2023/05/02 07:02:17;;;;;;;12.68;6.70;;;;;;;;;;6293086;28;20041;-54
2023/05/02 07:05:18;;;;;;;19.88;7.93;;;;;;;;;;6292813;28;20048;-53
2023/05/02 07:08:21;;;;;;;15.90;7.20;;;;;;;;;;6291927;28;20412;-66
2023/05/02 07:11:23;;;;;;;13.63;6.82;;;;;;;;;;6292233;28;20045;-53
2023/05/02 07:14:23;;;;;;;;;;;;;;;;;;6292991;28;20058;-61
2023/05/02 07:17:24;;;;;;;12.77;6.38;;;;;;;;;;6292317;28;19951;-60
2023/05/02 07:20:25;;;;;;;14.60;7.90;;;;;;;;;;6291197;28;20080;-49
2023/05/02 07:23:25;;;;;;;13.13;6.20;;;;;;;;;;6292686;28;20055;-64
2023/05/02 07:26:27;;;;;;;12.65;5.88;;;;;;;;;;6292063;28;20535;-57
2023/05/02 07:29:27;;;;;;;10.88;5.30;;;;;;;;;;6291288;28;20052;-53
2023/05/02 07:32:30;;;;;;;10.07;5.22;;;;;;;;;;6292247;28;20135;-51
2023/05/02 07:35:30;;;;;;;11.98;4.90;;;;;;;;;;6292200;28;20052;-53
2023/05/02 07:38:31;;;;;;;10.25;4.60;;;;;;;;;;6291452;28;20072;-52
2023/05/02 07:41:31;;;;;;;9.85;4.80;;;;;;;;;;6291515;28;20049;-53
2023/05/02 07:44:33;;;;;;;9.05;4.38;;;;;;;;;;6292157;28;20053;-53
2023/05/02 07:47:34;;;;;;;6.95;3.60;;;;;;;;;;6291771;28;20203;-57
2023/05/02 07:50:35;;;;;;;6.97;3.70;;;;;;;;;;6290636;28;20090;-49
2023/05/02 07:53:35;;;;;;;6.70;3.42;;;;;;;;;;6291835;28;20063;-53
2023/05/02 07:56:36;;;;;;;6.22;4.00;;;;;;;;;;6291696;28;20053;-60
2023/05/02 07:59:37;;;;;;;7.40;3.20;;;;;;;;;;6290318;28;20045;-52
2023/05/02 08:02:38;;;;;;;7.18;3.55;;;;;;;;;;6291492;28;20044;-53
2023/05/02 08:05:39;;;;;;;7.72;3.28;;;;;;;;;;6291201;28;20049;-51
2023/05/02 08:08:39;;;;;;;7.57;3.53;;;;;;;;;;6289830;28;20067;-63
2023/05/02 08:11:40;;;;;;;8.25;3.47;;;;;;;;;;6291085;28;20516;-57
2023/05/02 08:14:40;;;;;;;6.00;3.13;;;;;;;;;;6291329;28;20056;-54
2023/05/02 08:17:41;;;;;;;9.77;3.83;;;;;;;;;;6290988;28;20067;-65
2023/05/02 08:20:42;;;;;;;6.22;3.17;;;;;;;;;;6290086;28;20084;-50
2023/05/02 08:23:42;;;;;;;5.65;3.22;;;;;;;;;;6291101;28;20041;-52
2023/05/02 08:26:43;;;;;;;7.60;3.42;;;;;;;;;;6290851;28;20526;-55
2023/05/02 08:29:43;;;;;;;8.00;3.15;;;;;;;;;;6289509;28;20048;-54
2023/05/02 08:32:44;;;;;;;6.87;3.33;;;;;;;;;;6291065;28;20056;-53
2023/05/02 08:35:45;;;;;;;8.07;3.63;;;;;;;;;;6290734;28;20045;-54
2023/05/02 08:38:46;;;;;;;7.78;3.63;;;;;;;;;;6289784;28;20061;-55
2023/05/02 08:41:46;;;;;;;9.75;4.05;;;;;;;;;;6290542;28;20070;-54
2023/05/02 08:44:48;;;;;;;9.60;3.80;;;;;;;;;;6290801;28;20407;-53
2023/05/02 08:47:49;;;;;;;7.07;3.80;;;;;;;;;;6290266;28;20563;-54
2023/05/02 08:50:51;;;;;;;6.95;3.65;;;;;;;;;;6289881;28;20091;-54
2023/05/02 08:53:53;;;;;;;7.75;3.83;;;;;;;;;;6290757;28;20080;-51
2023/05/02 08:56:54;;;;;;;8.25;4.30;;;;;;;;;;6290428;28;20050;-52
2023/05/02 08:59:55;;;;;;;8.35;4.20;;;;;;;;;;6289285;28;20496;-56
2023/05/02 09:03:34;;;;;;;9.23;4.57;;;;;;;;;;6290614;28;20522;-53
2023/05/02 09:06:35;;;;;;;10.77;4.88;;;;;;;;;;6290343;28;20304;-64
2023/05/02 09:09:36;;;;;;;10.18;4.15;;;;;;;;;;6290376;28;20049;-55
2023/05/02 09:12:37;;;;;;;7.40;4.10;;;;;;;;;;6289377;28;20041;-58
2023/05/02 09:15:37;;;;;;;11.57;4.40;;;;;;;;;;6290492;28;20046;-54
2023/05/02 09:18:43;;;;;;;7.53;3.83;;;;;;;;;;6290379;28;20045;-55
2023/05/02 09:21:44;;;;;;;8.15;3.92;;;;;;;;;;6293514;28;20079;-53
2023/05/02 09:24:53;;;;;;;6.82;3.40;;;;;;;;;;6295304;28;20048;-57
2023/05/02 09:27:55;;;;;;;9.15;3.70;;;;;;;;;;6295332;28;20470;-56
2023/05/02 09:31:09;;;;;;;6.22;3.33;;;;;;;;;;6294427;28;20060;-67
2023/05/02 09:34:17;;;;;;;8.05;3.60;;;;;;;;;;6293915;28;20113;-54
2023/05/02 09:37:35;;;;;;;5.45;3.35;;;;;;;;;;6295091;28;20123;-56
2023/05/02 09:40:36;;;;;;;7.95;3.40;;;;;;;;;;6294988;28;20463;-62
2023/05/02 09:43:37;;;;;;;6.70;3.57;;;;;;;;;;6293885;28;20109;-52
2023/05/02 09:46:46;;;;;;;8.88;3.50;;;;;;;;;;6294213;28;20064;-52
2023/05/02 09:49:48;;;;;;;8.45;3.55;;;;;;;;;;6294824;28;20387;-57
2023/05/02 09:53:01;;;;;;;6.60;3.45;;;;;;;;;;6294533;28;20067;-52
2023/05/02 09:56:03;;;;;;;6.47;3.33;;;;;;;;;;6293400;28;20044;-55
2023/05/02 09:59:14;;;;;;;8.15;3.50;;;;;;;;;;6294744;28;20129;-66
2023/05/02 10:02:15;;;;;;;9.27;4.07;;;;;;;;;;6294549;28;20056;-53
2023/05/02 10:05:16;;;;;;;7.93;3.40;;;;;;;;;;6293576;28;20445;-68
2023/05/02 10:08:18;;;;;;;5.97;3.53;;;;;;;;;;6293942;28;20044;-56
2023/05/02 10:11:18;;;;;;;7.43;3.42;;;;;;;;;;6294170;28;20412;-54
2023/05/02 10:14:21;;;;;;;6.60;3.23;;;;;;;;;;6294122;28;20044;-54
2023/05/02 10:17:30;;;;;;;8.18;3.70;;;;;;;;;;6292994;28;20052;-55
2023/05/02 10:20:34;;;;;;;5.80;3.80;;;;;;;;;;6293960;28;20400;-52
2023/05/02 10:23:35;;;;;;;6.25;3.70;;;;;;;;;;6293942;28;20495;-57
2023/05/02 10:26:36;;;;;;;6.23;3.97;;;;;;;;;;6292518;28;20052;-54
2023/05/02 10:29:38;;;;;;;6.47;3.90;;;;;;;;;;6293621;28;20491;-55
2023/05/02 10:32:39;;;;;;;10.27;4.15;;;;;;;;;;6293221;28;20052;-57
2023/05/02 10:35:45;;;;;;;7.47;3.50;;;;;;;;;;6293247;28;20052;-56
2023/05/02 10:38:47;;;;;;;7.60;3.80;;;;;;;;;;6292835;28;20044;-54
2023/05/02 10:41:48;;;;;;;8.02;3.65;;;;;;;;;;6293438;28;20051;-52
2023/05/02 10:44:49;;;;;;;7.67;4.40;;;;;;;;;;6293338;28;20427;-57
2023/05/02 10:47:50;;;;;;;9.32;4.47;;;;;;;;;;6292127;28;20457;-56
2023/05/02 10:50:53;;;;;;;6.87;3.77;;;;;;;;;;6293503;28;20086;-55
2023/05/02 10:53:54;;;;;;;7.63;3.90;;;;;;;;;;6293404;28;20051;-52
2023/05/02 10:57:02;;;;;;;6.00;4.10;;;;;;;;;;6292141;28;20049;-56
2023/05/02 11:00:21;;;;;;;6.38;3.88;;;;;;;;;;6292685;28;20488;-54
2023/05/02 11:03:56;;;;;;;9.52;5.10;;;;;;;;;;6293091;28;20463;-55
2023/05/02 11:07:01;;;;;;;10.07;5.68;;;;;;;;;;6292902;28;20052;-56
2023/05/02 11:10:16;;;;;;;10.60;5.55;;;;;;;;;;6291908;28;20529;-55
2023/05/02 11:13:49;;;;;;;8.55;5.60;;;;;;;;;;6291926;28;20041;-57
2023/05/02 11:16:56;;;;;;;10.80;5.97;;;;;;;;;;6292783;28;20052;-54
2023/05/02 11:19:56;;;;;;;7.97;5.80;;;;;;;;;;6292787;28;20045;-57
2023/05/02 11:23:15;;;;;;;7.97;5.80;;;;;;;;;;6291619;28;20041;-55
2023/05/02 11:26:24;;;;;;;10.27;6.72;;;;;;;;;;6291478;28;20048;-54
2023/05/02 11:30:05;;;;;;;9.45;5.97;;;;;;;;;;6292364;28;20144;-55
2023/05/02 11:33:06;;;;;;;12.35;7.10;;;;;;;;;;6239707;28;20423;-54
2023/05/02 11:36:06;;;;;;;8.73;6.77;;;;;;;;;;6239322;28;21561;-62
2023/05/02 11:39:18;;;;;;;11.40;6.97;;;;;;;;;;6289328;28;20040;-55
2023/05/02 11:42:29;;;;;;;10.67;6.97;;;;;;;;;;6292008;28;20044;-64
2023/05/02 11:45:36;;;;;;;8.85;6.07;;;;;;;;;;6291274;28;20487;-54
2023/05/02 11:48:37;;;;;;;11.30;6.97;;;;;;;;;;6290575;28;20040;-53
2023/05/02 11:51:37;;;;;;;11.27;7.57;;;;;;;;;;6291512;28;20048;-53
2023/05/02 11:54:39;;;;;;;12.60;7.73;;;;;;;;;;6291704;28;20051;-54
2023/05/02 11:57:40;;;;;;;12.52;7.32;;;;;;;;;;6291244;28;20041;-68
2023/05/02 12:00:44;;;;;;;10.65;6.63;;;;;;;;;;6290748;28;20525;-54
2023/05/02 12:03:47;;;;;;;10.48;7.75;;;;;;;;;;6291532;28;20165;-56
2023/05/02 12:06:55;;;;;;;11.60;7.53;;;;;;;;;;6291012;28;20486;-55
2023/05/02 12:09:55;;;;;;;12.77;8.00;;;;;;;;;;6290021;28;20048;-56
2023/05/02 12:13:03;;;;;;;16.00;9.02;;;;;;;;;;6291441;28;20067;-54
2023/05/02 12:16:05;;;;;;;10.65;7.90;;;;;;;;;;6291296;28;20601;-53
2023/05/02 12:19:05;;;;;;;14.60;9.00;;;;;;;;;;6290443;28;20074;-54
2023/05/02 12:22:07;;;;;;;12.10;8.38;;;;;;;;;;6290726;28;20044;-53
2023/05/02 12:25:08;;;;;;;12.23;8.73;;;;;;;;;;6291199;28;20045;-58
2023/05/02 12:28:09;;;;;;;14.83;8.83;;;;;;;;;;6290847;28;20059;-54
2023/05/02 12:31:10;;;;;;;13.93;8.33;;;;;;;;;;6289895;28;20050;-54
2023/05/02 12:34:11;;;;;;;14.00;9.60;;;;;;;;;;6290905;28;20534;-53
2023/05/02 12:37:12;;;;;;;14.90;8.90;;;;;;;;;;6291346;28;20048;-62
2023/05/02 12:40:16;;;;;;;12.07;8.30;;;;;;;;;;6289583;28;20512;-55
2023/05/02 12:43:17;;;;;;;13.10;8.63;;;;;;;;;;6290648;28;20075;-55
2023/05/02 12:46:18;;;;;;;18.05;8.85;;;;;;;;;;6290600;28;20047;-64
2023/05/02 12:49:19;;;;;;;12.83;8.20;;;;;;;;;;6289743;28;20045;-55
2023/05/02 12:52:47;;;;;;;11.68;7.95;;;;;;;;;;6290413;28;20098;-58
2023/05/02 12:55:47;;;;;;;13.25;8.35;;;;;;;;;;6290305;28;20036;-55
2023/05/02 12:58:48;;;;;;;11.88;7.20;;;;;;;;;;6291004;28;20094;-53
2023/05/02 13:01:49;;;;;;;12.52;6.50;;;;;;;;;;6289202;28;20426;-54
2023/05/02 13:04:50;;;;;;;13.20;6.85;;;;;;;;;;6290426;28;20052;-53
2023/05/02 13:07:50;;;;;;;8.13;5.93;;;;;;;;;;6290409;28;20488;-61
2023/05/02 13:10:51;;;;;;;9.53;6.57;;;;;;;;;;6289588;28;20181;-54
2023/05/02 13:13:52;;;;;;;8.48;5.78;;;;;;;;;;6289936;28;20071;-54
2023/05/02 13:16:53;;;;;;;7.93;5.53;;;;;;;;;;6290435;28;20048;-56
2023/05/02 13:19:54;;;;;;;11.13;5.68;;;;;;;;;;6290062;28;20068;-64
2023/05/02 13:22:55;;;;;;;7.83;6.00;;;;;;;;;;6289272;28;20143;-58
2023/05/02 13:25:55;;;;;;;8.30;5.70;;;;;;;;;;6290308;28;20051;-55
2023/05/02 13:28:56;;;;;;;9.90;5.97;;;;;;;;;;6290226;28;20072;-57
2023/05/02 13:31:56;;;;;;;8.70;6.55;;;;;;;;;;6289002;28;20052;-62
2023/05/02 13:34:57;;;;;;;8.15;5.53;;;;;;;;;;6289954;28;20501;-56
2023/05/02 13:37:57;;;;;;;8.82;6.57;;;;;;;;;;6290318;28;20055;-55
2023/05/02 13:40:58;;;;;;;10.73;5.77;;;;;;;;;;6288980;28;20055;-64
2023/05/02 13:43:58;;;;;;;10.13;5.87;;;;;;;;;;6289688;28;20056;-57
2023/05/02 13:46:59;;;;;;;10.07;5.87;;;;;;;;;;6289985;28;20427;-55
2023/05/02 13:50:00;;;;;;;8.13;5.40;;;;;;;;;;6289586;28;20037;-57
2023/05/02 13:53:00;;;;;;;7.57;5.50;;;;;;;;;;6288997;28;20047;-54
2023/05/02 13:56:01;;;;;;;10.93;6.25;;;;;;;;;;6289847;28;20040;-54
2023/05/02 13:59:01;;;;;;;8.10;5.05;;;;;;;;;;6289804;28;20072;-51
2023/05/02 14:02:02;;;;;;;9.82;4.93;;;;;;;;;;6288590;28;20055;-54
2023/05/02 14:05:03;;;;;;;7.38;4.78;;;;;;;;;;6289727;28;20822;-56
2023/05/02 14:08:04;;;;;;;9.77;4.75;;;;;;;;;;6292973;28;20056;-56
2023/05/02 14:11:05;;;;;;;9.63;4.27;;;;;;;;;;6293086;28;20529;-59
2023/05/02 14:14:05;;;;;;;6.75;4.07;;;;;;;;;;6293689;28;20289;-56
2023/05/02 14:17:06;;;;;;;8.90;4.03;;;;;;;;;;6294271;28;20454;-55
2023/05/02 14:20:09;;;;;;;8.73;4.47;;;;;;;;;;6293469;28;20544;-55
2023/05/02 14:23:10;;;;;;;7.28;4.25;;;;;;;;;;6293119;28;20132;-55
2023/05/02 14:26:11;;;;;;;8.52;4.55;;;;;;;;;;6294041;28;20055;-50
2023/05/02 14:29:12;;;;;;;7.32;4.22;;;;;;;;;;6293703;28;20040;-59
2023/05/02 14:32:13;;;;;;;7.32;3.92;;;;;;;;;;6292713;28;20059;-58
2023/05/02 14:35:13;;;;;;;7.30;3.87;;;;;;;;;;6293753;28;20044;-53
2023/05/02 14:38:14;;;;;;;7.50;4.30;;;;;;;;;;6293844;28;20045;-55
2023/05/02 14:41:14;;;;;;;7.80;5.35;;;;;;;;;;6292273;28;20071;-56
2023/05/02 14:44:15;;;;;;;15.75;8.25;;;;;;;;;;6293409;28;20047;-55
2023/05/02 14:47:16;;;;;;;7.00;3.80;;;;;;;;;;6293470;28;20188;-55
2023/05/02 14:50:16;;;;;;;5.63;3.50;;;;;;;;;;6292669;28;20090;-60
2023/05/02 14:53:17;;;;;;;4.57;2.28;;;;;;;;;;6292677;28;20575;-56
2023/05/02 14:56:17;;;;;;;4.57;3.35;;;;;;;;;;6293214;28;20045;-56
2023/05/02 14:59:18;;;;;;;4.32;2.83;;;;;;;;;;6292975;28;20044;-55
2023/05/02 15:02:20;;;;;;;6.60;3.55;;;;;;;;;;6292080;28;20052;-54
2023/05/02 15:05:21;;;;;;;7.50;2.67;;;;;;;;;;6292854;28;20411;-56
2023/05/02 15:08:21;;;;;;;4.47;2.35;;;;;;;;;;6292973;28;20049;-57
2023/05/02 15:11:22;;;;;;;4.90;2.22;;;;;;;;;;6291531;28;20047;-57
2023/05/02 15:14:23;;;;;;;4.25;2.30;;;;;;;;;;6292675;28;20048;-58
2023/05/02 15:17:23;;;;;;;3.60;1.92;;;;;;;;;;6292766;28;20044;-57
2023/05/02 15:20:24;;;;;;;6.97;2.50;;;;;;;;;;6291887;28;20055;-56
2023/05/02 15:23:25;;;;;;;6.18;2.60;;;;;;;;;;6292361;28;20490;-56
2023/05/02 15:26:26;;;;;;;5.22;2.88;;;;;;;;;;6292369;28;20044;-54
2023/05/02 15:29:27;;;;;;;5.97;2.60;;;;;;;;;;6292384;28;20402;-56
2023/05/02 15:32:28;;;;;;;4.25;2.33;;;;;;;;;;6291338;28;20040;-55
2023/05/02 15:35:30;;;;;;;6.75;3.42;;;;;;;;;;6292294;28;20056;-56
2023/05/02 15:38:32;;;;;;;6.63;3.08;;;;;;;;;;6292296;28;20065;-55
2023/05/02 15:41:33;;;;;;;4.50;2.40;;;;;;;;;;6290731;28;20050;-54
2023/05/02 15:44:37;;;;;;;5.50;2.75;;;;;;;;;;6291952;28;20060;-54
2023/05/02 15:47:38;;;;;;;4.63;2.78;;;;;;;;;;6291964;28;20449;-54
2023/05/02 15:50:41;;;;;;;7.63;3.28;;;;;;;;;;6291281;28;20107;-55
2023/05/02 15:53:43;;;;;;;5.22;3.17;;;;;;;;;;6291165;28;20049;-57
2023/05/02 15:56:43;;;;;;;;;;;;;;;;;;6292336;28;20045;-55
2023/05/02 15:59:44;;;;;;;8.07;3.78;;;;;;;;;;6291523;28;19920;-53
2023/05/02 16:02:45;;;;;;;8.63;3.13;;;;;;;;;;6290801;28;20517;-57
2023/05/02 16:05:46;;;;;;;5.00;3.13;;;;;;;;;;6291211;28;20412;-55
2023/05/02 16:08:46;;;;;;;5.30;3.17;;;;;;;;;;6290405;28;20041;-57
2023/05/02 16:11:48;;;;;;;6.80;4.28;;;;;;;;;;6290199;28;20048;-52
2023/05/02 16:14:49;;;;;;;5.82;2.95;;;;;;;;;;6291096;28;20032;-55
2023/05/02 16:17:49;;;;;;;5.80;3.60;;;;;;;;;;6291215;28;20487;-55
2023/05/02 16:20:51;;;;;;;6.82;3.65;;;;;;;;;;6290357;28;20040;-56
2023/05/02 16:23:52;;;;;;;7.47;3.92;;;;;;;;;;6290463;28;20055;-58
2023/05/02 16:26:52;;;;;;;7.00;3.50;;;;;;;;;;6290587;28;20388;-55
2023/05/02 16:29:53;;;;;;;8.30;3.80;;;;;;;;;;6290256;28;20071;-54
2023/05/02 16:32:54;;;;;;;7.47;3.92;;;;;;;;;;6289715;28;20453;-55
2023/05/02 16:36:02;;;;;;;7.97;4.47;;;;;;;;;;6290870;28;20051;-55
2023/05/02 16:39:03;;;;;;;8.50;4.68;;;;;;;;;;6290829;28;20052;-53
2023/05/02 16:42:04;;;;;;;12.70;5.97;;;;;;;;;;6289746;28;20509;-56
2023/05/02 16:45:06;;;;;;;14.10;7.93;;;;;;;;;;6290566;28;20040;-56
2023/05/02 16:48:06;;;;;;;27.52;13.75;;;;;;;;;;6290860;28;20040;-53
2023/05/02 16:51:07;;;;;;;27.80;13.52;;;;;;;;;;6290260;28;20055;-55
2023/05/02 16:54:08;;;;;;;22.48;10.52;;;;;;;;;;6289915;28;20047;-55
2023/05/02 16:57:08;;;;;;;28.65;14.57;;;;;;;;;;6290748;28;20048;-51
2023/05/02 17:00:11;;;;;;;21.05;11.50;;;;;;;;;;6290377;28;20458;-61
2023/05/02 17:03:11;;;;;;;9.25;5.15;;;;;;;;;;6289389;28;20045;-53
2023/05/02 17:06:12;;;;;;;7.18;4.65;;;;;;;;;;6290241;28;20048;-55
2023/05/02 17:09:12;;;;;;;10.55;4.97;;;;;;;;;;6290483;28;20056;-54
2023/05/02 17:12:14;;;;;;;9.18;4.88;;;;;;;;;;6289358;28;20054;-55
2023/05/02 17:15:15;;;;;;;7.82;4.57;;;;;;;;;;6290283;28;20044;-55
2023/05/02 17:18:15;;;;;;;7.88;4.18;;;;;;;;;;6290274;28;20143;-52
2023/05/02 17:21:16;;;;;;;8.57;4.53;;;;;;;;;;6289703;28;20094;-54
2023/05/02 17:24:17;;;;;;;8.85;5.05;;;;;;;;;;6289862;28;20578;-54
2023/05/02 17:27:17;;;;;;;9.15;5.20;;;;;;;;;;6290202;28;20044;-56
2023/05/02 17:30:18;;;;;;;7.72;4.53;;;;;;;;;;6290084;28;20384;-54
2023/05/02 17:33:20;;;;;;;8.82;5.57;;;;;;;;;;6289134;28;20040;-56
2023/05/02 17:36:21;;;;;;;8.70;4.80;;;;;;;;;;6290141;28;20051;-65
2023/05/02 17:39:21;;;;;;;6.70;4.25;;;;;;;;;;6290224;28;20048;-56
2023/05/02 17:42:22;;;;;;;8.88;6.18;;;;;;;;;;6290989;28;20127;-55
2023/05/02 17:45:23;;;;;;;17.95;11.45;;;;;;;;;;6294661;28;20040;-53
2023/05/02 17:48:23;;;;;;;27.33;16.52;;;;;;;;;;6295124;28;20044;-56
2023/05/02 17:51:24;;;;;;;31.67;19.08;;;;;;;;;;6293735;28;20056;-59
2023/05/02 17:54:25;;;;;;;19.48;13.30;;;;;;;;;;6294242;28;20060;-52
2023/05/02 17:57:25;;;;;;;13.80;8.45;;;;;;;;;;6294628;28;20504;-51
2023/05/02 18:00:26;;;;;;;12.77;8.70;;;;;;;;;;6294344;28;20067;-69